Time;durP1;ratioP1;P1;durP2;ratioP2;P2;SDS_P1;SDS_P2;PMS_P1;PMS_P2;Temp;Humidity;BMP_temperature;BMP_pressure;BME280_temperature;BME280_humidity;BME280_pressure;Samples;Min_cycle;Max_cycle;Signal;HPM_P1;HPM_P2
2022/09/17 06:11:55;;;;;;;;;7.00;6.75;;;;;;;;5163245;27;79633;-71
2022/09/17 06:54:01;;;;;;;;;8.50;8.50;;;;;;;;5103408;27;1410282;-79
2022/09/17 06:56:26;;;;;;;;;5.25;3.00;;;;;;;;5157879;27;20672;-76
2022/09/17 06:58:52;;;;;;;;;9.50;6.75;;;;;;;;5079271;27;11609;-78
2022/09/17 07:01:18;;;;;;;;;9.50;7.00;;;;;;;;5116004;27;11372;-76
2022/09/17 07:03:43;;;;;;;;;8.25;5.75;;;;;;;;5105692;27;9835;-77
2022/09/17 07:06:09;;;;;;;;;8.25;8.25;;;;;;;;5095531;28;11657;-77
2022/09/17 07:08:35;;;;;;;;;12.25;8.25;;;;;;;;5095040;28;8958;-76
2022/09/17 07:11:00;;;;;;;;;11.25;8.50;;;;;;;;5110714;28;16271;-76
2022/09/17 07:13:25;;;;;;;;;10.25;9.50;;;;;;;;5113819;27;10653;-76
2022/09/17 07:15:52;;;;;;;;;8.25;8.25;;;;;;;;5114213;28;9560;-80
2022/09/17 07:18:17;;;;;;;;;8.00;8.00;;;;;;;;5116004;27;21764;-77
2022/09/17 07:20:42;;;;;;;;;11.00;10.00;;;;;;;;5115282;27;9810;-76
2022/09/17 07:23:07;;;;;;;;;10.75;8.75;;;;;;;;5113695;27;22343;-83
2022/09/17 07:25:33;;;;;;;;;10.00;7.67;;;;;;;;5116107;28;22075;-79
2022/09/17 07:27:58;;;;;;;;;7.33;7.00;;;;;;;;5115595;27;10535;-77
2022/09/17 07:30:23;;;;;;;;;7.33;7.00;;;;;;;;5112140;27;21326;-77
2022/09/17 07:32:49;;;;;;;;;8.67;7.33;;;;;;;;5109339;27;8833;-78
2022/09/17 07:35:14;;;;;;;;;8.00;4.33;;;;;;;;5097152;28;11283;-76
2022/09/17 07:37:39;;;;;;;;;10.00;8.00;;;;;;;;4983394;28;10298;-75
2022/09/17 07:40:08;;;;;;;;;5.00;5.00;;;;;;;;5101488;28;22578;-76
2022/09/17 07:42:33;;;;;;;;;8.00;8.00;;;;;;;;5108280;27;21392;-80
2022/09/17 07:44:59;;;;;;;;;5.00;5.00;;;;;;;;5102641;27;9070;-76
2022/09/17 07:47:24;;;;;;;;;7.67;7.00;;;;;;;;5103713;27;8908;-75
2022/09/17 07:49:49;;;;;;;;;9.33;8.00;;;;;;;;5097486;28;10671;-76
2022/09/17 07:52:15;;;;;;;;;8.00;7.00;;;;;;;;5101853;28;10471;-77
2022/09/17 07:54:40;;;;;;;;;7.00;5.00;;;;;;;;5115070;27;10676;-77
2022/09/17 07:57:05;;;;;;;;;9.00;7.00;;;;;;;;5114650;27;8940;-77
2022/09/17 07:59:31;;;;;;;;;8.00;7.00;;;;;;;;5113140;27;9641;-76
2022/09/17 08:01:56;;;;;;;;;13.67;9.00;;;;;;;;5103693;27;8823;-77
2022/09/17 08:04:21;;;;;;;;;8.67;8.00;;;;;;;;5095471;28;22532;-76
2022/09/17 08:06:47;;;;;;;;;8.33;6.00;;;;;;;;5101358;28;21482;-75
2022/09/17 08:09:14;;;;;;;;;9.00;8.00;;;;;;;;5100640;28;9803;-77
2022/09/17 08:11:40;;;;;;;;;9.33;7.33;;;;;;;;5101368;28;11458;-77
2022/09/17 08:14:05;;;;;;;;;1.00;1.00;;;;;;;;5100852;28;10401;-77
2022/09/17 08:16:31;;;;;;;;;2.00;2.00;;;;;;;;5100599;28;11275;-74
2022/09/17 08:18:56;;;;;;;;;0.00;0.00;;;;;;;;5099199;28;11405;-76
2022/09/17 08:21:22;;;;;;;;;0.00;0.00;;;;;;;;5101087;28;9535;-77
2022/09/17 08:23:48;;;;;;;;;0.00;0.00;;;;;;;;5101286;28;8818;-78
2022/09/17 08:26:17;;;;;;;;;0.00;0.00;;;;;;;;5101725;28;8789;-76
2022/09/17 08:28:46;;;;;;;;;3.00;0.00;;;;;;;;5100807;28;8766;-74
2022/09/17 08:31:12;;;;;;;;;0.00;0.00;;;;;;;;5100823;28;8882;-74
2022/09/17 08:33:38;;;;;;;;;1.00;0.00;;;;;;;;5100787;28;9026;-74
2022/09/17 08:36:04;;;;;;;;;0.00;0.00;;;;;;;;5101461;28;8785;-73
2022/09/17 08:38:34;;;;;;;;;0.00;0.00;;;;;;;;5100949;28;9256;-73
2022/09/17 08:41:11;;;;;;;;;0.00;0.00;;;;;;;;5101393;28;9400;-74
2022/09/17 08:43:55;;;;;;;;;0.00;0.00;;;;;;;;5101047;28;9937;-75
2022/09/17 08:46:22;;;;;;;;;0.00;0.00;;;;;;;;5100848;28;9614;-75
2022/09/17 08:49:06;;;;;;;;;0.00;0.00;;;;;;;;5100010;28;9320;-75
2022/09/17 08:51:31;;;;;;;;;0.00;0.00;;;;;;;;5061077;27;11867;-74
2022/09/17 08:54:08;;;;;;;;;0.00;0.00;;;;;;;;5082879;27;10431;-77
2022/09/17 08:56:36;;;;;;;;;0.00;0.00;;;;;;;;5100497;28;8796;-74
2022/09/17 08:59:14;;;;;;;;;0.00;0.00;;;;;;;;5100190;28;9384;-73
2022/09/17 09:01:43;;;;;;;;;0.00;0.00;;;;;;;;5099075;28;9355;-74
2022/09/17 09:04:27;;;;;;;;;0.00;0.00;;;;;;;;5098672;28;9537;-74
2022/09/17 09:07:13;;;;;;;;;1.00;1.00;;;;;;;;5083896;28;9614;-75
2022/09/17 09:09:44;;;;;;;;;3.25;2.50;;;;;;;;5098909;28;9811;-76
2022/09/17 09:12:17;;;;;;;;;1.00;1.00;;;;;;;;5099173;28;11633;-76
2022/09/17 09:14:48;;;;;;;;;2.50;2.50;;;;;;;;5099754;28;11358;-76
2022/09/17 09:17:16;;;;;;;;;0.75;0.00;;;;;;;;5098456;28;11552;-75
2022/09/17 09:19:43;;;;;;;;;0.00;0.00;;;;;;;;5100030;28;11385;-76
2022/09/17 09:22:27;;;;;;;;;0.00;0.00;;;;;;;;5098402;28;9978;-75
2022/09/17 09:25:04;;;;;;;;;0.00;0.00;;;;;;;;5100737;28;11108;-75
2022/09/17 09:27:38;;;;;;;;;0.00;0.00;;;;;;;;5099891;28;10090;-74
2022/09/17 09:30:06;;;;;;;;;0.00;0.00;;;;;;;;5100926;28;9875;-78
2022/09/17 09:32:50;;;;;;;;;0.00;0.00;;;;;;;;5100842;28;9926;-76
2022/09/17 09:35:21;;;;;;;;;0.00;0.00;;;;;;;;5099577;28;9694;-75
2022/09/17 09:37:56;;;;;;;;;0.00;0.00;;;;;;;;5099814;28;9726;-77
2022/09/17 09:40:30;;;;;;;;;0.00;0.00;;;;;;;;5100475;28;9548;-78
2022/09/17 09:42:59;;;;;;;;;0.00;0.00;;;;;;;;5099453;28;9749;-76
2022/09/17 09:45:44;;;;;;;;;0.00;0.00;;;;;;;;5098894;28;9656;-78
2022/09/17 09:48:36;;;;;;;;;0.00;0.00;;;;;;;;5081869;28;9731;-79
2022/09/17 09:51:07;;;;;;;;;0.00;0.00;;;;;;;;5090077;28;9877;-79
2022/09/17 09:53:47;;;;;;;;;0.00;0.00;;;;;;;;5099606;28;9730;-78
2022/09/17 09:56:31;;;;;;;;;0.00;0.00;;;;;;;;5099775;28;9707;-81
2022/09/17 09:58:56;;;;;;;;;0.00;0.00;;;;;;;;5088868;28;9838;-79
2022/09/17 10:01:22;;;;;;;;;0.00;0.00;;;;;;;;5079759;28;9743;-79
2022/09/17 10:03:50;;;;;;;;;0.00;0.00;;;;;;;;5080195;28;8808;-82
2022/09/17 10:06:16;;;;;;;;;0.00;0.00;;;;;;;;5083305;28;8805;-85
2022/09/17 10:09:01;;;;;;;;;0.00;0.00;;;;;;;;5097521;28;9924;-83
2022/09/17 10:11:28;;;;;;;;;0.00;0.00;;;;;;;;5096577;28;8832;-87
2022/09/17 10:14:12;;;;;;;;;0.00;0.00;;;;;;;;5099776;28;9873;-81
2022/09/17 10:16:37;;;;;;;;;0.00;0.00;;;;;;;;5099318;28;9961;-83
2022/09/17 10:19:02;;;;;;;;;0.50;0.00;;;;;;;;5091386;28;10079;-79
2022/09/17 10:21:35;;;;;;;;;0.00;0.00;;;;;;;;5095006;28;8800;-81
2022/09/17 10:24:02;;;;;;;;;0.00;0.00;;;;;;;;5080239;28;8799;-84
2022/09/17 10:26:29;;;;;;;;;0.00;0.00;;;;;;;;5082780;28;9990;-83
2022/09/17 10:28:59;;;;;;;;;0.25;0.00;;;;;;;;5097059;28;10103;-83
2022/09/17 10:31:24;;;;;;;;;1.00;0.00;;;;;;;;5099486;28;9988;-80
2022/09/17 10:34:02;;;;;;;;;0.00;0.00;;;;;;;;5096976;28;10011;-80
2022/09/17 10:36:38;;;;;;;;;0.00;0.00;;;;;;;;5098418;28;8874;-78
2022/09/17 10:39:22;;;;;;;;;1.00;1.00;;;;;;;;5096294;28;10141;-77
2022/09/17 10:41:59;;;;;;;;;1.00;1.00;;;;;;;;5098550;28;10240;-80
2022/09/17 10:44:26;;;;;;;;;0.00;0.00;;;;;;;;5099930;28;10325;-78
2022/09/17 10:46:52;;;;;;;;;0.00;0.00;;;;;;;;5095448;28;10296;-78
2022/09/17 10:49:30;;;;;;;;;1.00;0.00;;;;;;;;5098440;28;10226;-78
2022/09/17 10:52:13;;;;;;;;;0.00;0.00;;;;;;;;5098564;28;8813;-79
2022/09/17 10:54:50;;;;;;;;;0.00;0.00;;;;;;;;5097821;28;10283;-80
2022/09/17 10:57:25;;;;;;;;;0.00;0.00;;;;;;;;5094045;28;10172;-79
2022/09/17 11:00:06;;;;;;;;;0.00;0.00;;;;;;;;5098904;28;9909;-79
2022/09/17 11:02:50;;;;;;;;;0.00;0.00;;;;;;;;5099378;28;10945;-79
2022/09/17 11:05:37;;;;;;;;;0.00;0.00;;;;;;;;5099982;28;10164;-80
2022/09/17 11:08:19;;;;;;;;;0.00;0.00;;;;;;;;5094487;28;10210;-78
2022/09/17 11:10:47;;;;;;;;;0.00;0.00;;;;;;;;5098720;28;10897;-78
2022/09/17 11:13:15;;;;;;;;;0.00;0.00;;;;;;;;5098930;28;10911;-81
2022/09/17 11:16:05;;;;;;;;;0.00;0.00;;;;;;;;5098884;28;10247;-82
2022/09/17 11:18:39;;;;;;;;;0.00;0.00;;;;;;;;5095096;28;10215;-85
2022/09/17 11:21:25;;;;;;;;;0.00;0.00;;;;;;;;5098600;28;10315;-82
2022/09/17 11:23:50;;;;;;;;;0.00;0.00;;;;;;;;5098398;28;10311;-81
2022/09/17 11:26:24;;;;;;;;;0.00;0.00;;;;;;;;5098570;28;10290;-82
2022/09/17 11:28:50;;;;;;;;;0.00;0.00;;;;;;;;5093833;28;8782;-78
2022/09/17 11:31:18;;;;;;;;;0.00;0.00;;;;;;;;5098721;28;10169;-81
2022/09/17 11:33:43;;;;;;;;;0.00;0.00;;;;;;;;5098329;28;8979;-79
2022/09/17 11:36:14;;;;;;;;;0.00;0.00;;;;;;;;5097972;28;10321;-77
2022/09/17 11:38:50;;;;;;;;;0.00;0.00;;;;;;;;5093934;28;8804;-79
2022/09/17 11:41:20;;;;;;;;;0.00;0.00;;;;;;;;5100111;28;10389;-81
2022/09/17 11:43:51;;;;;;;;;1.75;0.00;;;;;;;;5101297;28;10426;-82
2022/09/17 11:46:19;;;;;;;;;0.00;0.00;;;;;;;;5101732;28;10383;-82
2022/09/17 11:48:47;;;;;;;;;0.00;0.00;;;;;;;;5097008;28;10164;-78
2022/09/17 11:51:26;;;;;;;;;0.00;0.00;;;;;;;;5101336;28;10848;-75
2022/09/17 11:53:51;;;;;;;;;0.00;0.00;;;;;;;;5100764;28;11182;-77
2022/09/17 11:56:26;;;;;;;;;0.00;0.00;;;;;;;;5100032;28;10144;-77
2022/09/17 11:59:09;;;;;;;;;0.00;0.00;;;;;;;;5097207;28;8786;-76
2022/09/17 12:01:37;;;;;;;;;0.00;0.00;;;;;;;;5101105;28;10136;-76
2022/09/17 12:04:17;;;;;;;;;0.00;0.00;;;;;;;;5100427;28;10959;-76
2022/09/17 12:06:47;;;;;;;;;0.00;0.00;;;;;;;;5100197;28;10246;-73
2022/09/17 12:09:18;;;;;;;;;0.00;0.00;;;;;;;;5096877;28;10376;-73
2022/09/17 12:11:51;;;;;;;;;0.00;0.00;;;;;;;;5101221;28;10564;-75
2022/09/17 12:14:21;;;;;;;;;0.00;0.00;;;;;;;;5100783;28;10559;-75
2022/09/17 12:16:48;;;;;;;;;0.00;0.00;;;;;;;;5094344;28;10511;-74
2022/09/17 12:19:18;;;;;;;;;0.75;0.00;;;;;;;;5097196;28;10514;-77
2022/09/17 12:21:46;;;;;;;;;0.00;0.00;;;;;;;;5099857;28;10459;-76
2022/09/17 12:24:20;;;;;;;;;0.00;0.00;;;;;;;;5100669;28;10364;-76
2022/09/17 12:27:04;;;;;;;;;0.50;0.00;;;;;;;;5099063;28;10321;-74
2022/09/17 12:29:48;;;;;;;;;0.00;0.00;;;;;;;;5079435;28;10879;-76
2022/09/17 12:32:39;;;;;;;;;0.00;0.00;;;;;;;;5100636;28;10169;-76
2022/09/17 12:35:26;;;;;;;;;0.00;0.00;;;;;;;;5084517;28;10351;-75
2022/09/17 12:37:57;;;;;;;;;0.00;0.00;;;;;;;;5091867;28;10162;-77
2022/09/17 12:40:37;;;;;;;;;0.00;0.00;;;;;;;;5100939;28;10195;-76
2022/09/17 12:43:16;;;;;;;;;0.00;0.00;;;;;;;;5097395;28;9876;-78
2022/09/17 12:45:50;;;;;;;;;0.00;0.00;;;;;;;;5098270;28;9952;-76
2022/09/17 12:48:29;;;;;;;;;1.00;0.00;;;;;;;;5087503;28;9972;-76
2022/09/17 12:51:03;;;;;;;;;0.00;0.00;;;;;;;;5098786;28;9917;-78
2022/09/17 12:53:31;;;;;;;;;0.00;0.00;;;;;;;;5090071;28;9894;-77
2022/09/17 12:56:02;;;;;;;;;0.00;0.00;;;;;;;;5095033;28;9838;-77
2022/09/17 12:58:31;;;;;;;;;0.00;0.00;;;;;;;;5088650;28;9803;-82
2022/09/17 13:01:05;;;;;;;;;0.00;0.00;;;;;;;;5098788;28;10857;-77
2022/09/17 13:03:41;;;;;;;;;0.00;0.00;;;;;;;;5096450;28;10001;-76
2022/09/17 13:06:09;;;;;;;;;0.00;0.00;;;;;;;;5098175;28;9860;-78
2022/09/17 13:08:57;;;;;;;;;0.00;0.00;;;;;;;;5098319;28;9804;-75
2022/09/17 13:11:38;;;;;;;;;0.00;0.00;;;;;;;;5091138;28;9664;-77
2022/09/17 13:14:11;;;;;;;;;0.00;0.00;;;;;;;;5098153;28;9702;-77
2022/09/17 13:16:42;;;;;;;;;0.00;0.00;;;;;;;;5098594;28;9556;-77
2022/09/17 13:19:26;;;;;;;;;0.00;0.00;;;;;;;;5093723;28;9645;-75
2022/09/17 13:21:54;;;;;;;;;0.00;0.00;;;;;;;;5096826;28;10671;-78
2022/09/17 13:24:24;;;;;;;;;0.00;0.00;;;;;;;;5087130;28;9795;-74
2022/09/17 13:26:52;;;;;;;;;0.00;0.00;;;;;;;;5094508;28;9833;-79
2022/09/17 13:29:36;;;;;;;;;0.00;0.00;;;;;;;;5094863;28;9646;-78
2022/09/17 13:32:01;;;;;;;;;0.00;0.00;;;;;;;;5090382;28;9920;-77
2022/09/17 13:34:28;;;;;;;;;0.00;0.00;;;;;;;;5097186;28;9751;-77
2022/09/17 13:36:55;;;;;;;;;0.00;0.00;;;;;;;;5095961;28;8821;-77
2022/09/17 13:39:35;;;;;;;;;0.00;0.00;;;;;;;;5098924;28;9795;-77
2022/09/17 13:42:08;;;;;;;;;0.00;0.00;;;;;;;;5088757;28;9736;-76
2022/09/17 13:44:46;;;;;;;;;0.00;0.00;;;;;;;;5097112;28;9916;-77
2022/09/17 13:47:11;;;;;;;;;1.00;0.00;;;;;;;;5097491;28;10381;-77
2022/09/17 13:49:42;;;;;;;;;0.00;0.00;;;;;;;;5097781;28;9704;-78
2022/09/17 13:52:08;;;;;;;;;0.00;0.00;;;;;;;;5097452;28;9676;-76
2022/09/17 13:54:37;;;;;;;;;1.00;0.00;;;;;;;;5099093;28;9642;-78
2022/09/17 13:57:06;;;;;;;;;0.00;0.00;;;;;;;;5098031;28;8793;-77
2022/09/17 13:59:35;;;;;;;;;0.00;0.00;;;;;;;;5098361;28;9572;-77
2022/09/17 14:02:23;;;;;;;;;0.00;0.00;;;;;;;;5097383;28;9545;-76
2022/09/17 14:04:50;;;;;;;;;1.00;0.00;;;;;;;;5097765;28;9437;-78
2022/09/17 14:07:22;;;;;;;;;0.00;0.00;;;;;;;;5098672;28;9674;-77
2022/09/17 14:09:50;;;;;;;;;0.00;0.00;;;;;;;;5099219;28;9731;-78
2022/09/17 14:12:34;;;;;;;;;0.00;0.00;;;;;;;;5100401;28;9554;-79
2022/09/17 14:15:00;;;;;;;;;0.00;0.00;;;;;;;;5101037;28;9530;-78
2022/09/17 14:17:55;;;;;;;;;0.00;0.00;;;;;;;;5100751;28;9637;-79
2022/09/17 14:20:21;;;;;;;;;0.00;0.00;;;;;;;;5095943;28;8802;-79
2022/09/17 14:22:53;;;;;;;;;0.00;0.00;;;;;;;;5099543;28;9598;-78
2022/09/17 14:25:21;;;;;;;;;0.00;0.00;;;;;;;;5099953;28;9418;-80
2022/09/17 14:27:57;;;;;;;;;0.00;0.00;;;;;;;;5099598;28;9499;-78
2022/09/17 14:30:25;;;;;;;;;0.00;0.00;;;;;;;;5098517;28;9353;-78
2022/09/17 14:32:59;;;;;;;;;1.00;0.00;;;;;;;;5098177;28;9653;-78
2022/09/17 14:35:28;;;;;;;;;0.00;0.00;;;;;;;;5097261;28;9357;-80
2022/09/17 14:37:58;;;;;;;;;0.00;0.00;;;;;;;;5097553;28;9409;-79
2022/09/17 14:40:23;;;;;;;;;0.00;0.00;;;;;;;;5098659;28;10206;-79
2022/09/17 14:42:52;;;;;;;;;0.00;0.00;;;;;;;;5098204;28;9440;-77
2022/09/17 14:45:28;;;;;;;;;0.00;0.00;;;;;;;;5095423;28;8883;-79
2022/09/17 14:48:12;;;;;;;;;1.00;0.00;;;;;;;;5093506;28;9349;-77
2022/09/17 14:50:37;;;;;;;;;0.00;0.00;;;;;;;;5094864;28;10221;-80
2022/09/17 14:53:07;;;;;;;;;0.00;0.00;;;;;;;;5095300;28;9539;-76
2022/09/17 14:55:32;;;;;;;;;0.00;0.00;;;;;;;;5098369;28;8806;-82
2022/09/17 14:58:03;;;;;;;;;0.00;0.00;;;;;;;;5094025;28;9424;-76
2022/09/17 15:00:36;;;;;;;;;0.00;0.00;;;;;;;;5086732;28;8974;-77
2022/09/17 15:03:02;;;;;;;;;0.00;0.00;;;;;;;;5087017;28;9292;-76
2022/09/17 15:05:30;;;;;;;;;0.33;0.00;;;;;;;;5085463;28;9282;-76
2022/09/17 15:08:11;;;;;;;;;0.00;0.00;;;;;;;;5087067;28;8805;-77
2022/09/17 15:10:50;;;;;;;;;0.00;0.00;;;;;;;;5087890;28;9288;-75
2022/09/17 15:13:18;;;;;;;;;0.00;0.00;;;;;;;;5089704;28;9422;-80
2022/09/17 15:16:04;;;;;;;;;0.00;0.00;;;;;;;;5091981;28;9401;-75
2022/09/17 15:18:35;;;;;;;;;0.00;0.00;;;;;;;;5107864;28;9419;-77
2022/09/17 15:21:02;;;;;;;;;0.00;0.00;;;;;;;;5092664;28;9486;-77
2022/09/17 15:23:29;;;;;;;;;0.00;0.00;;;;;;;;5092070;28;9216;-75
2022/09/17 15:25:56;;;;;;;;;0.00;0.00;;;;;;;;5092219;28;9380;-75
2022/09/17 15:28:35;;;;;;;;;0.00;0.00;;;;;;;;5084969;28;10083;-76
2022/09/17 15:31:00;;;;;;;;;0.00;0.00;;;;;;;;5082780;28;10284;-77
2022/09/17 15:33:26;;;;;;;;;0.00;0.00;;;;;;;;5082143;28;9613;-76
2022/09/17 15:36:06;;;;;;;;;0.00;0.00;;;;;;;;5082223;28;8772;-77
2022/09/17 15:38:32;;;;;;;;;0.00;0.00;;;;;;;;5080429;28;11535;-78
2022/09/17 15:41:15;;;;;;;;;0.00;0.00;;;;;;;;5082447;28;9273;-77
2022/09/17 15:43:42;;;;;;;;;0.00;0.00;;;;;;;;5082382;28;8800;-77
2022/09/17 15:46:26;;;;;;;;;0.00;0.00;;;;;;;;5081659;28;9236;-77
2022/09/17 15:48:56;;;;;;;;;3.75;2.00;;;;;;;;5082032;28;9287;-77
2022/09/17 15:51:30;;;;;;;;;1.25;0.50;;;;;;;;5082351;28;10372;-77
2022/09/17 15:54:03;;;;;;;;;0.00;0.00;;;;;;;;5101452;28;11574;-78
2022/09/17 15:56:32;;;;;;;;;0.00;0.00;;;;;;;;5102362;28;11420;-78
2022/09/17 15:59:03;;;;;;;;;1.00;1.00;;;;;;;;5100869;28;9265;-78
2022/09/17 16:01:28;;;;;;;;;0.00;0.00;;;;;;;;5101395;28;9447;-75
2022/09/17 16:04:07;;;;;;;;;1.00;0.00;;;;;;;;5099026;28;9427;-76
2022/09/17 16:06:32;;;;;;;;;0.25;0.00;;;;;;;;5089249;28;9504;-76
2022/09/17 16:09:02;;;;;;;;;1.00;0.00;;;;;;;;5091399;28;9536;-77
2022/09/17 16:11:31;;;;;;;;;0.00;0.00;;;;;;;;5090221;28;9359;-76
2022/09/17 16:13:57;;;;;;;;;0.00;0.00;;;;;;;;5101891;28;9272;-77
2022/09/17 16:16:24;;;;;;;;;0.00;0.00;;;;;;;;5096151;28;9480;-77
2022/09/17 16:18:49;;;;;;;;;1.25;0.00;;;;;;;;5090506;28;9438;-76
2022/09/17 16:21:15;;;;;;;;;0.00;0.00;;;;;;;;5090246;28;9597;-77
2022/09/17 16:23:41;;;;;;;;;0.00;0.00;;;;;;;;5092164;28;9214;-76
2022/09/17 16:26:11;;;;;;;;;0.00;0.00;;;;;;;;5085137;28;9456;-77
2022/09/17 16:28:37;;;;;;;;;1.00;0.00;;;;;;;;5101039;28;8789;-76
2022/09/17 16:31:04;;;;;;;;;0.00;0.00;;;;;;;;5097842;28;9479;-76
2022/09/17 16:33:29;;;;;;;;;0.00;0.00;;;;;;;;5095153;28;9306;-76
2022/09/17 16:35:58;;;;;;;;;0.00;0.00;;;;;;;;5091704;28;9550;-77
2022/09/17 16:38:23;;;;;;;;;0.00;0.00;;;;;;;;5089055;28;8889;-77
2022/09/17 16:40:50;;;;;;;;;0.00;0.00;;;;;;;;5086866;28;9501;-75
2022/09/17 16:43:19;;;;;;;;;0.00;0.00;;;;;;;;5092145;28;8804;-76
2022/09/17 16:45:56;;;;;;;;;0.00;0.00;;;;;;;;5092360;28;9291;-76
2022/09/17 16:48:22;;;;;;;;;0.00;0.00;;;;;;;;5086749;28;9273;-76
2022/09/17 16:50:47;;;;;;;;;0.00;0.00;;;;;;;;5080193;28;9375;-76
2022/09/17 16:53:12;;;;;;;;;0.00;0.00;;;;;;;;5096200;28;8845;-76
2022/09/17 16:55:37;;;;;;;;;0.00;0.00;;;;;;;;5100512;28;8758;-77
2022/09/17 16:58:03;;;;;;;;;0.00;0.00;;;;;;;;5099139;28;8955;-77
2022/09/17 17:00:28;;;;;;;;;0.00;0.00;;;;;;;;5100707;28;8773;-77
2022/09/17 17:02:54;;;;;;;;;0.00;0.00;;;;;;;;5098113;28;8957;-75
2022/09/17 17:05:20;;;;;;;;;0.00;0.00;;;;;;;;5091054;28;8809;-75
2022/09/17 17:07:46;;;;;;;;;0.00;0.00;;;;;;;;5089268;28;9694;-75
2022/09/17 17:10:11;;;;;;;;;0.00;0.00;;;;;;;;5083126;28;11479;-76
2022/09/17 17:12:37;;;;;;;;;0.00;0.00;;;;;;;;5080018;28;8844;-79
2022/09/17 17:15:04;;;;;;;;;0.00;0.00;;;;;;;;5080310;28;8806;-78
2022/09/17 17:17:30;;;;;;;;;0.00;0.00;;;;;;;;5082362;28;8796;-78
2022/09/17 17:19:55;;;;;;;;;1.00;0.00;;;;;;;;5097194;28;9655;-76
2022/09/17 17:22:20;;;;;;;;;1.25;1.25;;;;;;;;5099445;28;8844;-76
2022/09/17 17:24:46;;;;;;;;;1.00;1.00;;;;;;;;5098593;28;10272;-76
2022/09/17 17:27:12;;;;;;;;;2.75;1.00;;;;;;;;5099471;28;8855;-76
2022/09/17 17:29:38;;;;;;;;;0.00;0.00;;;;;;;;5096130;28;10284;-76
2022/09/17 17:32:03;;;;;;;;;0.00;0.00;;;;;;;;5098721;28;10322;-77
2022/09/17 17:34:29;;;;;;;;;0.00;0.00;;;;;;;;5099423;28;8838;-77
2022/09/17 17:36:55;;;;;;;;;0.00;0.00;;;;;;;;5097869;28;8906;-78
2022/09/17 17:39:20;;;;;;;;;0.00;0.00;;;;;;;;5098682;28;9796;-80
2022/09/17 17:41:45;;;;;;;;;0.00;0.00;;;;;;;;5098528;28;8817;-77
2022/09/17 17:44:11;;;;;;;;;0.00;0.00;;;;;;;;5097958;28;8817;-79
2022/09/17 17:46:37;;;;;;;;;0.25;0.00;;;;;;;;5081499;28;10309;-84
2022/09/17 17:49:02;;;;;;;;;0.00;0.00;;;;;;;;5074282;28;10299;-81
2022/09/17 17:51:28;;;;;;;;;0.75;0.00;;;;;;;;5075634;28;10298;-81
2022/09/17 17:53:53;;;;;;;;;0.00;0.00;;;;;;;;5071091;28;10267;-80
2022/09/17 17:56:19;;;;;;;;;1.75;0.50;;;;;;;;5077536;28;8861;-87
2022/09/17 17:58:44;;;;;;;;;1.00;1.00;;;;;;;;5076523;27;11347;-86
2022/09/17 18:01:10;;;;;;;;;4.25;2.50;;;;;;;;5075783;28;11487;-81
2022/09/17 18:03:35;;;;;;;;;3.00;2.00;;;;;;;;5075762;28;13695;-81
2022/09/17 18:06:03;;;;;;;;;5.50;3.00;;;;;;;;5078217;28;11961;-80
2022/09/17 18:08:28;;;;;;;;;2.75;1.75;;;;;;;;5077211;28;10350;-78
2022/09/17 18:10:55;;;;;;;;;2.00;1.00;;;;;;;;5074632;28;11491;-79
2022/09/17 18:13:21;;;;;;;;;0.00;0.00;;;;;;;;5077605;28;8813;-78
2022/09/17 18:15:54;;;;;;;;;1.00;1.00;;;;;;;;5077618;28;10000;-77
2022/09/17 18:18:20;;;;;;;;;0.00;0.00;;;;;;;;5076738;28;8792;-79
2022/09/17 18:20:45;;;;;;;;;1.50;1.00;;;;;;;;5075326;28;10107;-81
2022/09/17 18:23:10;;;;;;;;;5.50;2.75;;;;;;;;5075559;28;10268;-83
2022/09/17 18:25:36;;;;;;;;;3.00;3.00;;;;;;;;5077545;28;11369;-81
2022/09/17 18:28:02;;;;;;;;;3.00;3.00;;;;;;;;5077022;28;11313;-84
2022/09/17 18:30:28;;;;;;;;;0.25;0.25;;;;;;;;5075504;28;8817;-79
2022/09/17 18:32:53;;;;;;;;;2.25;2.25;;;;;;;;5076831;28;11305;-79
2022/09/17 18:35:18;;;;;;;;;33.50;29.75;;;;;;;;5076537;28;8802;-81
2022/09/17 18:37:44;;;;;;;;;6.50;4.75;;;;;;;;5076343;28;22515;-80
2022/09/17 18:40:09;;;;;;;;;4.00;4.00;;;;;;;;5075500;28;22817;-80
2022/09/17 18:42:35;;;;;;;;;2.25;2.25;;;;;;;;5076726;28;12056;-81
2022/09/17 18:45:00;;;;;;;;;8.00;6.00;;;;;;;;5076428;28;11581;-79
2022/09/17 18:47:25;;;;;;;;;1.50;1.50;;;;;;;;5075673;28;11706;-80
2022/09/17 18:49:51;;;;;;;;;2.00;2.00;;;;;;;;5074014;28;11285;-84
2022/09/17 18:52:17;;;;;;;;;47.50;37.50;;;;;;;;5075680;28;11444;-78
2022/09/17 18:54:44;;;;;;;;;1.00;0.25;;;;;;;;5075992;28;22462;-79
2022/09/17 18:57:10;;;;;;;;;4.50;2.00;;;;;;;;5071682;28;22494;-80
2022/09/17 18:59:35;;;;;;;;;1.00;1.00;;;;;;;;5072017;28;12454;-81
2022/09/17 19:02:00;;;;;;;;;1.00;1.00;;;;;;;;5074693;28;11938;-82
2022/09/17 19:04:27;;;;;;;;;1.00;1.00;;;;;;;;5075090;28;8986;-80
2022/09/17 19:06:52;;;;;;;;;0.00;0.00;;;;;;;;5076845;28;8782;-82
2022/09/17 19:09:17;;;;;;;;;7.25;5.75;;;;;;;;5075639;28;10196;-81
2022/09/17 19:11:43;;;;;;;;;2.75;2.75;;;;;;;;5073902;28;11529;-82
2022/09/17 19:14:09;;;;;;;;;3.00;3.00;;;;;;;;5074993;28;9489;-83
2022/09/17 19:16:34;;;;;;;;;7.25;4.50;;;;;;;;5076729;28;11694;-82
2022/09/17 19:19:00;;;;;;;;;3.50;2.50;;;;;;;;5076223;28;12101;-82
2022/09/17 19:21:25;;;;;;;;;6.25;4.50;;;;;;;;5072611;28;10275;-80
2022/09/17 19:23:51;;;;;;;;;2.75;2.75;;;;;;;;5074736;28;12482;-81
2022/09/17 19:26:24;;;;;;;;;3.00;3.00;;;;;;;;5074141;28;13297;-82
2022/09/17 19:28:54;;;;;;;;;4.75;3.00;;;;;;;;5073486;28;11382;-80
2022/09/17 19:31:20;;;;;;;;;3.00;3.00;;;;;;;;5076581;28;10815;-79
2022/09/17 19:33:45;;;;;;;;;1.00;1.00;;;;;;;;5075138;28;12129;-80
2022/09/17 19:36:12;;;;;;;;;2.75;2.75;;;;;;;;5076249;28;8856;-79
2022/09/17 19:38:37;;;;;;;;;8.00;6.00;;;;;;;;5075839;28;11514;-77
2022/09/17 19:41:10;;;;;;;;;7.00;5.25;;;;;;;;5075948;28;11289;-83
2022/09/17 19:43:36;;;;;;;;;5.75;5.75;;;;;;;;5073081;28;12101;-83
2022/09/17 19:46:02;;;;;;;;;0.75;0.75;;;;;;;;5076633;28;11981;-83
2022/09/17 19:48:28;;;;;;;;;7.75;6.00;;;;;;;;5077788;28;8863;-84
2022/09/17 19:50:53;;;;;;;;;5.50;2.00;;;;;;;;5076863;28;11494;-81
2022/09/17 19:53:19;;;;;;;;;1.00;1.00;;;;;;;;5076383;28;10778;-82
2022/09/17 19:55:45;;;;;;;;;3.50;3.00;;;;;;;;5076950;28;10774;-83
2022/09/17 19:58:11;;;;;;;;;7.75;7.50;;;;;;;;5077372;28;10640;-82
2022/09/17 20:00:36;;;;;;;;;13.50;7.75;;;;;;;;5079248;28;12541;-82
2022/09/17 20:03:04;;;;;;;;;13.00;11.50;;;;;;;;5080230;28;21371;-82
2022/09/17 20:05:30;;;;;;;;;6.25;3.00;;;;;;;;5080268;28;21441;-82
2022/09/17 20:07:55;;;;;;;;;5.75;4.00;;;;;;;;5079965;28;23249;-81
2022/09/17 20:10:20;;;;;;;;;7.50;5.00;;;;;;;;5080959;28;9518;-81
2022/09/17 20:12:46;;;;;;;;;4.25;4.00;;;;;;;;5081384;28;10272;-80
2022/09/17 20:15:11;;;;;;;;;5.00;4.00;;;;;;;;5080421;28;10812;-79
2022/09/17 20:17:36;;;;;;;;;5.75;5.00;;;;;;;;5081000;28;8816;-80
2022/09/17 20:20:02;;;;;;;;;6.75;5.50;;;;;;;;5080668;28;9914;-80
2022/09/17 20:22:27;;;;;;;;;4.25;2.75;;;;;;;;5075442;28;11907;-83
2022/09/17 20:24:52;;;;;;;;;5.00;5.00;;;;;;;;5060522;28;12022;-82
2022/09/17 20:27:18;;;;;;;;;13.75;13.50;;;;;;;;5060091;28;11547;-82
2022/09/17 20:29:43;;;;;;;;;12.00;11.25;;;;;;;;5059845;28;22763;-82
2022/09/17 20:32:08;;;;;;;;;9.50;9.00;;;;;;;;5063544;28;13508;-82
2022/09/17 20:34:34;;;;;;;;;9.00;6.00;;;;;;;;5078453;28;22344;-82
2022/09/17 20:36:59;;;;;;;;;6.00;6.00;;;;;;;;5079463;28;9690;-82
2022/09/17 20:39:24;;;;;;;;;5.50;4.25;;;;;;;;5078532;28;8774;-83
2022/09/17 20:41:50;;;;;;;;;6.00;5.00;;;;;;;;5078236;28;11484;-83
2022/09/17 20:44:16;;;;;;;;;4.00;2.75;;;;;;;;5078755;28;11471;-82
2022/09/17 20:46:41;;;;;;;;;4.00;4.00;;;;;;;;5073630;28;11968;-82
2022/09/17 20:49:07;;;;;;;;;6.00;5.25;;;;;;;;5079111;28;10842;-82
2022/09/17 20:51:32;;;;;;;;;6.00;6.00;;;;;;;;5076573;28;13504;-82
2022/09/17 20:53:59;;;;;;;;;3.00;3.00;;;;;;;;5077684;28;8817;-81
2022/09/17 20:56:26;;;;;;;;;4.00;3.00;;;;;;;;5079985;28;8778;-82
2022/09/17 20:58:57;;;;;;;;;7.25;7.25;;;;;;;;5074367;28;10819;-80
2022/09/17 21:01:24;;;;;;;;;6.75;5.00;;;;;;;;5078988;28;11775;-82
2022/09/17 21:03:52;;;;;;;;;6.25;5.00;;;;;;;;5078608;28;11378;-83
2022/09/17 21:06:22;;;;;;;;;8.75;8.75;;;;;;;;5078400;28;11068;-82
2022/09/17 21:08:48;;;;;;;;;1.00;0.00;;;;;;;;5076323;28;12711;-82
2022/09/17 21:11:13;;;;;;;;;17.00;13.00;;;;;;;;5078405;28;11504;-82
2022/09/17 21:13:40;;;;;;;;;10.00;9.00;;;;;;;;5078193;28;24416;-82
2022/09/17 21:16:06;;;;;;;;;4.50;3.00;;;;;;;;5078761;28;22750;-82
2022/09/17 21:18:31;;;;;;;;;6.00;6.00;;;;;;;;5075335;28;21457;-83
2022/09/17 21:20:59;;;;;;;;;6.25;6.25;;;;;;;;5073683;28;11560;-82
2022/09/17 21:23:25;;;;;;;;;5.00;4.00;;;;;;;;5078767;28;8840;-83
2022/09/17 21:25:51;;;;;;;;;9.00;6.00;;;;;;;;5077907;28;11631;-81
2022/09/17 21:28:20;;;;;;;;;9.25;6.50;;;;;;;;5078934;28;10999;-83
2022/09/17 21:30:49;;;;;;;;;12.50;9.25;;;;;;;;5079665;28;9556;-82
2022/09/17 21:33:20;;;;;;;;;4.00;3.25;;;;;;;;5077963;28;21418;-82
2022/09/17 21:35:46;;;;;;;;;5.25;5.25;;;;;;;;5078347;28;22037;-81
2022/09/17 21:38:12;;;;;;;;;6.75;6.75;;;;;;;;5076808;28;12793;-81
2022/09/17 21:40:37;;;;;;;;;6.00;5.25;;;;;;;;5079350;28;10265;-82
2022/09/17 21:43:02;;;;;;;;;6.00;4.50;;;;;;;;5078166;28;10283;-82
2022/09/17 21:45:27;;;;;;;;;9.50;9.50;;;;;;;;5079614;28;8832;-81
2022/09/17 21:47:53;;;;;;;;;39.75;31.25;;;;;;;;5079411;28;10232;-82
2022/09/17 21:50:18;;;;;;;;;30.75;29.00;;;;;;;;5078433;28;22541;-82
2022/09/17 21:52:43;;;;;;;;;20.75;20.25;;;;;;;;5065090;28;14511;-81